Time;durP1;ratioP1;P1;durP2;ratioP2;P2;SDS_P1;SDS_P2;PMS_P1;PMS_P2;Temp;Humidity;BMP_temperature;BMP_pressure;BME280_temperature;BME280_humidity;BME280_pressure;Samples;Min_cycle;Max_cycle;Signal;HPM_P1;HPM_P2
2021/12/01 00:00:29;;;;;;;2.42;0.70;;;16.60;70.90;;;;;;10568236;28;20554;-58
2021/12/01 00:05:32;;;;;;;3.17;0.60;;;16.60;70.90;;;;;;10568594;28;20032;-58
2021/12/01 00:10:35;;;;;;;1.73;0.47;;;16.60;70.90;;;;;;10567717;28;20479;-58
2021/12/01 00:15:37;;;;;;;2.13;0.77;;;16.60;70.90;;;;;;10586108;28;20223;-57
2021/12/01 00:20:39;;;;;;;2.70;0.45;;;16.60;70.90;;;;;;10567639;28;20417;-58
2021/12/01 00:25:42;;;;;;;1.60;0.50;;;16.60;70.90;;;;;;10567373;28;20068;-58
2021/12/01 00:30:43;;;;;;;0.75;0.40;;;16.50;70.80;;;;;;10567019;28;20024;-58
2021/12/01 00:35:44;;;;;;;2.65;0.60;;;16.60;70.90;;;;;;10565876;28;20043;-57
2021/12/01 00:40:45;;;;;;;2.90;0.60;;;16.60;70.90;;;;;;10584738;28;20031;-56
2021/12/01 00:45:56;;;;;;;0.90;0.40;;;16.50;70.90;;;;;;10566199;28;20040;-57
2021/12/01 00:50:58;;;;;;;1.98;0.40;;;16.50;70.90;;;;;;10567498;28;20047;-57
2021/12/01 00:55:58;;;;;;;2.00;0.60;;;16.50;70.90;;;;;;10584339;28;20035;-57
2021/12/01 01:01:01;;;;;;;0.80;0.38;;;16.50;70.80;;;;;;10565739;28;20038;-58
2021/12/01 01:06:03;;;;;;;0.70;0.40;;;16.50;70.90;;;;;;10566144;28;20026;-57
2021/12/01 01:16:22;;;;;;;1.73;0.47;;;16.40;70.90;;;;;;10565166;28;20400;-57
2021/12/01 01:21:26;;;;;;;1.30;0.50;;;16.40;70.80;;;;;;10583301;28;20047;-58
2021/12/01 01:26:28;;;;;;;1.98;0.50;;;16.40;70.80;;;;;;10582844;28;20035;-57
2021/12/01 01:31:29;;;;;;;0.43;0.32;;;16.40;70.90;;;;;;10564809;28;20022;-57
2021/12/01 01:36:30;;;;;;;1.65;0.40;;;16.40;70.90;;;;;;10564468;28;20163;-58
2021/12/01 01:41:31;;;;;;;1.33;0.40;;;16.40;70.90;;;;;;10564230;28;20032;-56
2021/12/01 01:46:34;;;;;;;0.75;0.40;;;16.40;70.90;;;;;;10563974;28;20034;-58
2021/12/01 01:51:37;;;;;;;1.33;0.57;;;16.40;70.90;;;;;;10557579;28;20028;-58
2021/12/01 01:56:38;;;;;;;0.68;0.22;;;16.30;70.80;;;;;;10561500;28;20028;-57
2021/12/01 02:01:45;;;;;;;1.70;0.50;;;16.40;70.90;;;;;;10563385;28;20118;-56
2021/12/01 02:06:48;;;;;;;1.30;0.70;;;16.30;70.90;;;;;;10564138;28;20034;-57
2021/12/01 02:11:53;;;;;;;2.20;0.60;;;16.30;70.90;;;;;;10563129;28;20016;-58
2021/12/01 02:16:56;;;;;;;0.70;0.40;;;16.30;70.90;;;;;;10562935;28;20399;-57
2021/12/01 02:21:57;;;;;;;1.50;0.57;;;16.30;70.90;;;;;;10562787;28;20460;-57
2021/12/01 02:26:57;;;;;;;0.45;0.35;;;16.30;70.90;;;;;;10562345;28;20103;-57
2021/12/01 02:31:58;;;;;;;0.85;0.50;;;16.30;70.90;;;;;;10562148;28;20019;-57
2021/12/01 02:36:59;;;;;;;0.70;0.47;;;16.20;70.80;;;;;;10561250;28;20023;-55
2021/12/01 02:42:05;;;;;;;1.10;0.57;;;16.20;70.80;;;;;;10544847;28;20087;-58
2021/12/01 02:47:06;;;;;;;0.50;0.40;;;16.30;70.80;;;;;;10579984;28;20077;-58
2021/12/01 02:52:07;;;;;;;0.75;0.45;;;16.20;70.80;;;;;;10561771;28;20081;-58
2021/12/01 02:57:08;;;;;;;0.60;0.30;;;16.20;70.80;;;;;;10561691;28;20042;-57
2021/12/01 03:02:09;;;;;;;0.77;0.40;;;16.20;70.80;;;;;;10561028;28;20032;-58
2021/12/01 03:07:11;;;;;;;0.88;0.38;;;16.20;70.80;;;;;;10561456;28;20032;-57
2021/12/01 03:12:12;;;;;;;0.77;0.65;;;16.20;70.80;;;;;;10561530;28;20032;-58
2021/12/01 03:17:13;;;;;;;1.00;0.50;;;16.20;70.80;;;;;;10561117;28;20035;-56
2021/12/01 03:22:15;;;;;;;0.47;0.30;;;16.20;70.80;;;;;;10579542;28;20028;-57
2021/12/01 03:27:16;;;;;;;1.75;0.55;;;16.20;70.80;;;;;;10579292;28;20099;-57
2021/12/01 03:32:17;;;;;;;4.43;0.75;;;16.20;70.80;;;;;;10579130;28;20042;-58
2021/12/01 03:37:18;;;;;;;0.80;0.35;;;16.20;70.80;;;;;;10561086;28;20032;-57
2021/12/01 03:42:18;;;;;;;1.23;0.43;;;16.20;70.80;;;;;;10560500;28;20115;-57
2021/12/01 03:47:19;;;;;;;0.82;0.38;;;16.10;70.80;;;;;;10579119;28;20054;-58
2021/12/01 03:52:20;;;;;;;0.77;0.38;;;16.10;70.80;;;;;;10569234;28;20097;-57
2021/12/01 03:57:22;;;;;;;0.98;0.47;;;16.10;70.80;;;;;;10560561;28;20485;-56
2021/12/01 04:02:23;;;;;;;0.55;0.30;;;16.10;70.70;;;;;;10560598;28;20027;-56
2021/12/01 04:07:23;;;;;;;0.65;0.40;;;16.10;70.70;;;;;;10578637;28;20023;-57
2021/12/01 04:12:26;;;;;;;1.00;0.60;;;16.10;70.70;;;;;;10564513;28;20030;-58
2021/12/01 04:17:27;;;;;;;0.73;0.40;;;16.10;70.70;;;;;;10567797;28;20098;-57
2021/12/01 04:22:28;;;;;;;0.57;0.35;;;16.10;70.70;;;;;;10567656;28;20114;-57
2021/12/01 04:27:29;;;;;;;0.47;0.30;;;16.10;70.70;;;;;;10567259;28;20028;-57
2021/12/01 04:32:30;;;;;;;1.00;0.43;;;16.00;70.60;;;;;;10585483;28;20078;-58
2021/12/01 04:37:31;;;;;;;1.02;0.40;;;16.00;70.60;;;;;;10566793;28;20027;-57
2021/12/01 04:42:32;;;;;;;0.40;0.40;;;16.00;70.70;;;;;;10566439;28;20392;-58
2021/12/01 04:47:37;;;;;;;0.75;0.38;;;16.00;70.60;;;;;;10566624;28;20072;-56
2021/12/01 04:52:39;;;;;;;0.38;0.30;;;16.00;70.60;;;;;;10574952;28;20368;-58
2021/12/01 04:57:45;;;;;;;0.60;0.50;;;16.00;70.60;;;;;;10566202;28;20035;-56
2021/12/01 05:02:47;;;;;;;0.70;0.50;;;16.00;70.60;;;;;;10565822;28;20039;-56
2021/12/01 05:07:47;;;;;;;0.73;0.28;;;16.00;70.60;;;;;;10583820;28;20035;-57
2021/12/01 05:12:48;;;;;;;0.30;0.30;;;16.00;70.70;;;;;;10583643;28;20106;-57
2021/12/01 05:17:49;;;;;;;0.93;0.40;;;16.00;70.70;;;;;;10583631;28;20451;-57
2021/12/01 05:22:50;;;;;;;1.88;1.02;;;16.00;70.60;;;;;;10547663;28;20611;-57
2021/12/01 05:27:51;;;;;;;1.10;0.47;;;15.90;70.50;;;;;;10583123;28;20033;-58
2021/12/01 05:32:52;;;;;;;0.40;0.30;;;15.90;70.40;;;;;;10558459;28;20077;-57
2021/12/01 05:37:52;;;;;;;1.10;0.40;;;15.90;70.50;;;;;;10581389;28;20027;-58
2021/12/01 05:42:53;;;;;;;0.70;0.40;;;15.90;70.60;;;;;;10562521;28;20378;-57
2021/12/01 05:47:54;;;;;;;0.88;0.40;;;16.10;70.10;;;;;;10550813;28;20030;-56
2021/12/01 05:52:54;;;;;;;0.75;0.50;;;16.40;69.40;;;;;;10579679;28;20028;-57
2021/12/01 05:57:55;;;;;;;1.70;0.40;;;16.60;68.70;;;;;;10546275;28;20115;-58
2021/12/01 06:02:56;;;;;;;1.90;0.40;;;16.80;68.70;;;;;;10563238;28;20038;-58
2021/12/01 06:07:57;;;;;;;2.85;0.43;;;17.00;68.60;;;;;;10563195;28;20467;-60
2021/12/01 06:12:58;;;;;;;7.35;0.85;;;17.20;69.40;;;;;;10580962;28;20374;-57
2021/12/01 06:17:58;;;;;;;2.38;0.50;;;17.40;68.80;;;;;;10546519;28;20122;-54
2021/12/01 06:22:59;;;;;;;7.63;1.33;;;17.50;68.60;;;;;;10562123;28;20031;-56
2021/12/01 06:28:00;;;;;;;2.38;1.15;;;17.50;69.10;;;;;;10580498;28;20031;-56
2021/12/01 06:33:01;;;;;;;4.68;0.70;;;17.50;69.30;;;;;;10561624;28;20034;-56
2021/12/01 06:38:04;;;;;;;12.73;1.10;;;17.50;69.40;;;;;;10551474;28;20442;-55
2021/12/01 06:43:04;;;;;;;11.00;1.33;;;17.60;68.90;;;;;;10561676;28;20047;-55
2021/12/01 06:48:06;;;;;;;13.77;1.27;;;17.60;68.90;;;;;;10519280;28;20035;-53
2021/12/01 06:53:07;;;;;;;5.72;0.70;;;17.60;68.80;;;;;;10548827;28;20030;-52
2021/12/01 06:58:07;;;;;;;16.15;1.80;;;17.60;68.70;;;;;;10577985;28;20028;-54
2021/12/01 07:03:08;;;;;;;5.10;1.20;;;17.70;69.10;;;;;;10542430;28;20038;-56
2021/12/01 07:08:09;;;;;;;11.35;1.67;;;17.80;68.50;;;;;;10576444;28;20488;-54
2021/12/01 07:13:10;;;;;;;10.75;1.33;;;17.80;68.40;;;;;;10578591;28;20039;-54
2021/12/01 07:18:11;;;;;;;7.32;1.52;;;17.90;67.90;;;;;;10554627;28;20032;-53
2021/12/01 07:23:12;;;;;;;10.95;1.10;;;18.00;67.40;;;;;;10574596;28;20028;-53
2021/12/01 07:28:13;;;;;;;7.50;1.20;;;18.10;67.00;;;;;;10548794;28;20039;-55
2021/12/01 07:33:14;;;;;;;7.07;1.52;;;18.10;66.70;;;;;;10572951;28;20036;-55
2021/12/01 07:38:15;;;;;;;7.15;1.00;;;18.20;66.50;;;;;;10528498;28;20032;-54
2021/12/01 07:43:16;;;;;;;5.55;1.10;;;18.30;66.60;;;;;;10550818;28;20039;-55
2021/12/01 07:48:17;;;;;;;5.95;1.15;;;18.30;66.50;;;;;;10582446;28;20035;-55
2021/12/01 07:53:17;;;;;;;6.25;0.90;;;18.30;66.40;;;;;;10567018;28;20039;-55
2021/12/01 07:58:18;;;;;;;5.57;1.10;;;18.30;66.60;;;;;;10583474;28;20491;-55
2021/12/01 08:03:19;;;;;;;7.82;1.60;;;18.30;66.60;;;;;;10583303;28;20089;-54
2021/12/01 08:08:20;;;;;;;7.72;2.33;;;18.40;66.70;;;;;;10567684;28;20110;-55
2021/12/01 08:13:20;;;;;;;6.53;1.45;;;18.40;66.70;;;;;;10585913;28;20027;-54
2021/12/01 08:18:21;;;;;;;7.40;1.27;;;18.40;66.60;;;;;;10584386;28;20044;-58
2021/12/01 08:23:22;;;;;;;9.75;1.48;;;18.40;66.60;;;;;;10566684;28;20038;-57
2021/12/01 08:28:23;;;;;;;9.25;1.55;;;18.50;66.40;;;;;;10585020;28;20475;-54
2021/12/01 08:33:23;;;;;;;8.75;1.58;;;18.50;66.40;;;;;;10566680;28;20122;-53
2021/12/01 08:38:24;;;;;;;4.85;1.02;;;18.40;66.80;;;;;;10579658;28;20421;-54
2021/12/01 08:43:25;;;;;;;11.88;1.48;;;18.50;66.50;;;;;;10584580;28;20050;-55
2021/12/01 08:48:26;;;;;;;4.60;1.20;;;18.40;66.40;;;;;;10545625;28;20026;-55
2021/12/01 08:53:35;;;;;;;8.68;1.10;;;18.50;66.30;;;;;;10559969;28;20023;-55
2021/12/01 08:58:36;;;;;;;4.83;2.17;;;18.50;66.30;;;;;;10560573;28;20032;-54
2021/12/01 09:03:36;;;;;;;2.55;0.85;;;18.50;66.00;;;;;;10562931;28;20441;-56
2021/12/01 09:08:39;;;;;;;7.13;0.93;;;18.60;65.70;;;;;;10583969;28;20028;-57
2021/12/01 09:13:40;;;;;;;7.40;0.85;;;18.60;65.90;;;;;;10565603;28;20107;-57
2021/12/01 09:18:41;;;;;;;10.70;1.23;;;18.60;66.30;;;;;;10582707;28;20026;-56
2021/12/01 09:23:41;;;;;;;5.97;0.95;;;18.60;66.60;;;;;;10563461;28;20556;-56
2021/12/01 09:28:42;;;;;;;8.38;1.90;;;18.60;66.80;;;;;;10556911;28;20020;-59
2021/12/01 09:33:43;;;;;;;18.15;1.50;;;18.60;67.30;;;;;;10573417;28;20028;-59
2021/12/01 09:38:44;;;;;;;12.25;1.73;;;18.60;67.70;;;;;;10561082;28;20035;-56
2021/12/01 09:43:45;;;;;;;8.35;1.23;;;18.70;68.40;;;;;;10516636;28;20040;-59
2021/12/01 09:48:46;;;;;;;9.20;1.88;;;18.60;67.80;;;;;;10561922;28;20055;-59
2021/12/01 09:53:48;;;;;;;11.82;1.65;;;18.70;67.90;;;;;;10556309;28;20020;-59
2021/12/01 09:58:49;;;;;;;13.70;2.22;;;18.70;67.70;;;;;;10563587;28;20023;-59
2021/12/01 10:03:51;;;;;;;13.60;2.05;;;18.60;67.70;;;;;;10580792;28;20034;-59
2021/12/01 10:09:00;;;;;;;13.35;1.80;;;18.60;68.10;;;;;;10561804;28;20051;-58
2021/12/01 10:14:10;;;;;;;18.30;1.60;;;18.60;67.90;;;;;;10561724;28;20038;-56
2021/12/01 10:19:14;;;;;;;12.82;1.58;;;18.80;67.70;;;;;;10544839;28;20078;-55
2021/12/01 10:24:24;;;;;;;17.20;2.55;;;18.80;67.90;;;;;;10558585;28;20112;-59
2021/12/01 10:29:29;;;;;;;11.75;1.70;;;18.80;67.90;;;;;;10567434;28;20032;-58
2021/12/01 10:34:43;;;;;;;15.50;2.85;;;18.80;68.20;;;;;;10569025;28;20039;-59
2021/12/01 10:39:48;;;;;;;14.48;2.78;;;18.80;68.70;;;;;;10557166;28;20043;-56
2021/12/01 10:45:17;;;;;;;14.63;1.70;;;19.00;68.70;;;;;;10555939;28;20035;-56
2021/12/01 10:50:23;;;;;;;11.43;1.90;;;19.10;67.80;;;;;;10553294;28;20055;-58
2021/12/01 10:55:26;;;;;;;11.45;1.92;;;19.00;68.10;;;;;;10549289;28;20078;-56
2021/12/01 11:00:49;;;;;;;16.95;2.30;;;19.00;68.40;;;;;;10559703;28;20027;-57
2021/12/01 11:05:55;;;;;;;12.85;1.92;;;19.00;68.60;;;;;;10574316;28;20050;-58
2021/12/01 11:11:15;;;;;;;12.13;1.85;;;19.00;68.70;;;;;;10559586;28;20115;-57
2021/12/01 11:16:18;;;;;;;7.55;1.92;;;19.00;68.60;;;;;;10577901;28;20080;-57
2021/12/01 11:21:24;;;;;;;20.33;2.72;;;19.00;68.50;;;;;;10581705;28;20045;-57
2021/12/01 11:26:28;;;;;;;12.68;2.22;;;18.90;68.50;;;;;;10555366;28;20036;-55
2021/12/01 11:31:34;;;;;;;9.40;2.20;;;19.00;68.40;;;;;;10567470;28;20049;-57
2021/12/01 11:36:41;;;;;;;16.73;2.60;;;18.90;68.30;;;;;;10570826;28;20036;-55
2021/12/01 11:41:42;;;;;;;14.48;2.33;;;19.00;68.30;;;;;;10568038;28;20020;-56
2021/12/01 11:46:44;;;;;;;15.02;2.88;;;18.90;68.80;;;;;;10584279;28;20578;-57
2021/12/01 11:52:02;;;;;;;8.93;2.30;;;19.00;69.40;;;;;;10584787;28;20438;-57
2021/12/01 11:57:09;;;;;;;21.35;2.63;;;19.00;69.70;;;;;;10585209;28;20032;-57
2021/12/01 12:02:16;;;;;;;18.40;2.80;;;18.90;69.80;;;;;;10566293;28;20080;-56
2021/12/01 12:07:25;;;;;;;10.57;1.60;;;18.90;70.10;;;;;;10583940;28;20035;-55
2021/12/01 12:12:26;;;;;;;11.95;1.98;;;18.90;70.10;;;;;;10584526;28;20067;-54
2021/12/01 12:17:35;;;;;;;13.38;1.77;;;18.80;69.80;;;;;;10583106;28;20062;-57
2021/12/01 12:22:38;;;;;;;9.65;2.15;;;18.90;69.40;;;;;;10562643;28;20475;-55
2021/12/01 12:27:57;;;;;;;16.05;1.88;;;18.90;69.50;;;;;;10581090;28;20036;-56
2021/12/01 12:33:31;;;;;;;14.23;2.33;;;18.70;70.10;;;;;;10555704;28;20034;-55
2021/12/01 12:38:32;;;;;;;7.82;1.80;;;18.80;70.30;;;;;;10567924;28;20043;-55
2021/12/01 12:43:33;;;;;;;6.53;1.30;;;18.70;70.00;;;;;;10564454;28;20070;-56
2021/12/01 12:48:48;;;;;;;4.47;1.25;;;18.80;69.70;;;;;;10582053;28;20119;-55
2021/12/01 12:54:12;;;;;;;7.93;1.40;;;18.80;69.20;;;;;;10540416;28;20031;-58
2021/12/01 12:59:28;;;;;;;16.73;1.88;;;18.80;69.20;;;;;;10541577;28;20032;-56
2021/12/01 13:05:00;;;;;;;12.35;2.13;;;18.80;69.30;;;;;;10565824;28;20027;-56
2021/12/01 13:10:34;;;;;;;18.35;3.22;;;18.80;69.00;;;;;;10582722;28;20035;-56
2021/12/01 13:15:48;;;;;;;16.85;2.88;;;18.80;69.00;;;;;;10581405;28;20034;-57
2021/12/01 13:20:58;;;;;;;15.38;2.88;;;18.70;69.50;;;;;;10547315;28;20035;-57
2021/12/01 13:26:07;;;;;;;18.02;2.85;;;18.70;69.90;;;;;;10554285;28;20031;-58
2021/12/01 13:31:23;;;;;;;20.93;3.30;;;18.60;70.60;;;;;;10568252;28;20058;-58
2021/12/01 13:36:26;;;;;;;17.30;3.13;;;18.60;70.70;;;;;;10561392;28;20476;-60
2021/12/01 13:41:39;;;;;;;11.32;1.80;;;18.60;71.00;;;;;;10563535;28;20023;-58
2021/12/01 13:46:40;;;;;;;11.32;2.22;;;18.50;70.80;;;;;;10581080;28;20036;-58
2021/12/01 13:51:45;;;;;;;18.30;2.45;;;18.50;70.80;;;;;;10562158;28;20023;-58
2021/12/01 13:57:10;;;;;;;15.88;2.58;;;18.50;70.70;;;;;;10562604;28;20039;-58
2021/12/01 14:02:24;;;;;;;14.80;2.25;;;18.60;71.00;;;;;;10580500;28;20054;-58
2021/12/01 14:07:40;;;;;;;13.02;2.40;;;18.50;70.90;;;;;;10562944;28;20036;-56
2021/12/01 14:12:55;;;;;;;9.65;2.20;;;18.40;71.30;;;;;;10563976;28;20027;-57
2021/12/01 14:17:56;;;;;;;14.20;2.55;;;18.50;71.40;;;;;;10565791;28;20035;-57
2021/12/01 14:22:59;;;;;;;15.18;3.40;;;18.40;71.60;;;;;;10559971;28;20057;-58
2021/12/01 14:28:04;;;;;;;19.42;2.90;;;18.50;71.50;;;;;;10542779;28;20403;-57
2021/12/01 14:33:10;;;;;;;19.90;2.78;;;18.50;71.50;;;;;;10558905;28;20028;-57
2021/12/01 14:38:14;;;;;;;18.08;3.53;;;18.50;70.90;;;;;;10577003;28;20390;-57
2021/12/01 14:43:24;;;;;;;17.45;3.15;;;18.50;71.90;;;;;;10559303;28;20063;-57
2021/12/01 14:48:34;;;;;;;18.80;2.85;;;18.40;72.10;;;;;;10560123;28;20108;-60
2021/12/01 14:53:38;;;;;;;11.88;2.58;;;18.30;72.40;;;;;;10575958;28;20031;-57
2021/12/01 14:58:51;;;;;;;15.18;2.40;;;18.40;72.20;;;;;;10558788;28;20108;-57
2021/12/01 15:04:06;;;;;;;14.13;3.67;;;18.40;71.90;;;;;;10558202;28;20028;-56
2021/12/01 15:09:07;;;;;;;20.20;2.85;;;18.40;71.90;;;;;;10578478;28;20031;-57
2021/12/01 15:14:09;;;;;;;20.13;2.95;;;18.40;71.70;;;;;;10561393;28;20499;-57
2021/12/01 15:19:15;;;;;;;21.27;3.53;;;18.40;72.00;;;;;;10579581;28;20036;-57
2021/12/01 15:24:21;;;;;;;25.58;3.28;;;18.40;71.70;;;;;;10561393;28;20077;-56
2021/12/01 15:29:29;;;;;;;19.33;3.55;;;18.50;71.70;;;;;;10578885;28;20034;-55
2021/12/01 15:34:30;;;;;;;23.10;3.17;;;18.50;71.70;;;;;;10557671;28;20040;-57
2021/12/01 15:39:34;;;;;;;20.30;4.30;;;18.50;72.00;;;;;;10568921;28;20055;-55
2021/12/01 15:44:36;;;;;;;26.77;3.70;;;18.40;72.20;;;;;;10576690;28;20035;-54
2021/12/01 15:49:43;;;;;;;33.25;4.43;;;18.40;71.80;;;;;;10550293;28;20111;-53
2021/12/01 15:54:43;;;;;;;28.33;4.10;;;18.40;71.50;;;;;;10578729;28;20055;-57
2021/12/01 15:59:44;;;;;;;32.55;3.58;;;18.50;70.50;;;;;;10554600;28;20483;-54
2021/12/01 16:04:45;;;;;;;35.95;5.05;;;18.60;70.60;;;;;;10560205;28;20115;-56
2021/12/01 16:09:45;;;;;;;35.88;4.97;;;18.80;70.40;;;;;;10565941;28;20110;-54
2021/12/01 16:14:46;;;;;;;30.15;4.25;;;18.90;70.10;;;;;;10565354;28;20122;-55
2021/12/01 16:19:47;;;;;;;24.30;4.32;;;18.90;70.40;;;;;;10566417;28;20032;-56
2021/12/01 16:24:48;;;;;;;27.23;4.25;;;19.00;70.50;;;;;;10584777;28;20035;-55
2021/12/01 16:29:48;;;;;;;19.70;4.25;;;19.00;70.60;;;;;;10564955;28;20356;-57
2021/12/01 16:34:49;;;;;;;24.20;4.75;;;19.00;70.50;;;;;;10579686;28;20122;-56
2021/12/01 16:39:50;;;;;;;22.40;3.55;;;18.90;69.50;;;;;;10583303;28;20036;-57
2021/12/01 16:44:51;;;;;;;19.45;2.70;;;18.90;69.30;;;;;;10583046;28;20042;-56
2021/12/01 16:49:51;;;;;;;15.50;3.25;;;18.80;68.70;;;;;;10576622;28;20020;-56
2021/12/01 16:54:54;;;;;;;16.23;3.88;;;18.80;69.10;;;;;;10563232;28;20031;-56
2021/12/01 16:59:55;;;;;;;20.77;4.75;;;18.90;67.90;;;;;;10561690;28;20028;-57
2021/12/01 17:05:03;;;;;;;12.93;2.90;;;18.90;66.60;;;;;;10567490;28;20506;-57
2021/12/01 17:10:05;;;;;;;11.52;3.72;;;18.80;66.30;;;;;;10546293;28;20069;-57
2021/12/01 17:15:07;;;;;;;12.20;4.85;;;18.90;66.10;;;;;;10554719;28;20023;-56
2021/12/01 17:20:14;;;;;;;11.75;4.28;;;18.80;66.80;;;;;;10580878;28;20083;-56
2021/12/01 17:25:18;;;;;;;13.48;3.42;;;18.80;66.10;;;;;;10562192;28;20032;-57
2021/12/01 17:30:26;;;;;;;13.77;4.13;;;18.90;69.40;;;;;;10563774;28;20031;-56
2021/12/01 17:35:29;;;;;;;12.25;2.90;;;19.10;68.30;;;;;;10550402;28;20032;-55
2021/12/01 17:40:29;;;;;;;11.57;2.67;;;19.20;68.30;;;;;;10532023;28;20424;-57
2021/12/01 17:45:31;;;;;;;10.82;2.90;;;19.20;67.80;;;;;;10561398;28;20032;-58
2021/12/01 17:50:32;;;;;;;15.30;3.25;;;19.20;68.10;;;;;;10561191;28;20028;-58
2021/12/01 17:55:37;;;;;;;14.00;3.40;;;19.30;67.90;;;;;;10562375;28;20039;-58
2021/12/01 18:00:39;;;;;;;18.67;3.75;;;19.20;68.50;;;;;;10582042;28;20410;-58
2021/12/01 18:05:40;;;;;;;13.48;2.83;;;19.10;67.40;;;;;;10563611;28;20035;-58
2021/12/01 18:10:42;;;;;;;10.23;2.50;;;19.00;68.20;;;;;;10563248;28;20027;-58
2021/12/01 18:15:43;;;;;;;11.57;2.33;;;19.00;67.60;;;;;;10563168;28;20080;-59
2021/12/01 18:20:44;;;;;;;11.52;2.63;;;18.90;67.60;;;;;;10562575;28;20071;-58
2021/12/01 18:25:45;;;;;;;15.85;2.97;;;18.90;67.60;;;;;;10551608;28;20409;-57
2021/12/01 18:30:45;;;;;;;8.55;2.20;;;19.00;67.70;;;;;;10561574;28;20118;-61
2021/12/01 18:35:46;;;;;;;10.32;2.40;;;19.00;67.70;;;;;;10561938;28;20035;-58
2021/12/01 18:40:47;;;;;;;10.38;2.40;;;18.90;67.90;;;;;;10579062;28;20026;-58
2021/12/01 18:45:48;;;;;;;8.48;1.77;;;19.00;67.50;;;;;;10576742;28;20044;-57
2021/12/01 18:50:48;;;;;;;7.35;1.85;;;19.00;67.60;;;;;;10558762;28;20020;-57
2021/12/01 18:55:49;;;;;;;7.55;2.55;;;19.10;67.20;;;;;;10560086;28;20398;-57
2021/12/01 19:00:50;;;;;;;8.57;2.38;;;19.20;67.20;;;;;;10576702;28;20028;-56
2021/12/01 19:05:51;;;;;;;6.25;2.22;;;19.20;67.00;;;;;;10540789;28;20028;-57
2021/12/01 19:10:52;;;;;;;15.13;2.45;;;19.20;67.10;;;;;;10564586;28;20043;-57
2021/12/01 19:15:54;;;;;;;8.32;1.73;;;19.20;67.10;;;;;;10539133;28;20464;-57
2021/12/01 19:20:54;;;;;;;5.53;1.27;;;19.10;67.20;;;;;;10558419;28;20034;-57
2021/12/01 19:25:55;;;;;;;8.93;1.70;;;19.20;67.20;;;;;;10536319;28;20063;-57
2021/12/01 19:30:59;;;;;;;12.02;1.83;;;19.20;67.30;;;;;;10531724;28;20027;-57
2021/12/01 19:36:00;;;;;;;5.95;2.17;;;19.20;67.20;;;;;;10558535;28;20028;-57
2021/12/01 19:41:01;;;;;;;6.90;2.05;;;19.20;67.30;;;;;;10561633;28;20034;-57
2021/12/01 19:46:03;;;;;;;3.65;1.80;;;19.20;67.30;;;;;;10585120;28;20043;-57
2021/12/01 19:51:04;;;;;;;3.20;1.27;;;19.20;67.40;;;;;;10585191;28;20027;-57
2021/12/01 19:56:06;;;;;;;5.72;1.52;;;19.20;67.40;;;;;;10583953;28;20054;-57
2021/12/01 20:01:06;;;;;;;6.00;1.50;;;19.20;67.60;;;;;;10540491;28;20074;-56
2021/12/01 20:06:09;;;;;;;4.05;1.15;;;19.20;67.40;;;;;;10567391;28;20042;-57
2021/12/01 20:11:10;;;;;;;4.70;1.20;;;19.10;67.50;;;;;;10551084;28;20064;-57
2021/12/01 20:16:14;;;;;;;5.45;1.92;;;19.00;67.80;;;;;;10565519;28;20391;-56
2021/12/01 20:21:17;;;;;;;3.75;1.05;;;18.90;68.10;;;;;;10580935;28;20034;-57
2021/12/01 20:26:18;;;;;;;6.57;1.80;;;18.70;68.40;;;;;;10548728;28;20368;-56
2021/12/01 20:31:19;;;;;;;4.30;1.20;;;18.60;68.60;;;;;;10566826;28;20043;-56
2021/12/01 20:36:23;;;;;;;5.45;1.30;;;18.50;68.80;;;;;;10567278;28;20035;-57
2021/12/01 20:41:28;;;;;;;2.47;1.20;;;18.40;69.00;;;;;;10584752;28;20030;-57
2021/12/01 20:46:40;;;;;;;7.10;1.52;;;18.30;69.30;;;;;;10584378;27;20052;-57
2021/12/01 21:02:09;;;;;;;3.58;1.00;;;17.90;69.90;;;;;;10567012;28;20367;-56
2021/12/01 21:07:10;;;;;;;6.13;1.73;;;17.80;69.90;;;;;;10566102;28;20027;-54
2021/12/01 21:12:14;;;;;;;2.47;1.15;;;17.80;70.10;;;;;;10565479;28;20073;-57
2021/12/01 21:17:15;;;;;;;3.65;1.17;;;17.70;70.20;;;;;;10565411;28;20028;-56
2021/12/01 21:22:17;;;;;;;3.28;1.50;;;17.70;70.30;;;;;;10564504;28;20082;-57
2021/12/01 21:27:18;;;;;;;2.88;1.05;;;17.60;70.20;;;;;;10564500;28;20036;-58
2021/12/01 21:32:22;;;;;;;2.67;1.05;;;17.60;70.20;;;;;;10564637;28;20483;-57
2021/12/01 21:37:24;;;;;;;2.92;0.95;;;17.50;70.20;;;;;;10564221;28;20027;-57
2021/12/01 21:42:26;;;;;;;3.47;0.80;;;17.50;70.70;;;;;;10564151;28;20047;-57
2021/12/01 21:47:27;;;;;;;2.78;1.10;;;17.40;70.00;;;;;;10564227;28;20383;-56
2021/12/01 21:52:28;;;;;;;2.28;1.30;;;17.40;69.90;;;;;;10563967;28;20024;-55
2021/12/01 21:57:31;;;;;;;3.08;1.42;;;17.30;69.90;;;;;;10563396;28;20035;-55
2021/12/01 22:02:32;;;;;;;2.78;1.15;;;17.30;70.00;;;;;;10546326;28;20024;-58
2021/12/01 22:07:34;;;;;;;2.70;0.90;;;17.30;69.90;;;;;;10581571;28;20119;-55
2021/12/01 22:12:36;;;;;;;2.08;0.90;;;17.20;69.70;;;;;;10563420;28;20103;-55
2021/12/01 22:17:42;;;;;;;2.65;1.05;;;17.20;69.70;;;;;;10546028;28;20077;-56
2021/12/01 22:22:46;;;;;;;1.80;0.80;;;17.10;70.00;;;;;;10579514;28;20031;-57
2021/12/01 22:27:47;;;;;;;3.47;1.13;;;17.10;69.70;;;;;;10562832;28;20024;-56
2021/12/01 22:32:50;;;;;;;3.67;1.02;;;17.10;69.60;;;;;;10565632;28;20024;-56
2021/12/01 22:37:51;;;;;;;2.78;1.17;;;17.00;69.70;;;;;;10562122;28;20032;-56
2021/12/01 22:42:53;;;;;;;2.88;1.33;;;17.00;69.80;;;;;;10561314;28;20051;-57
2021/12/01 22:47:55;;;;;;;2.35;0.80;;;17.00;69.70;;;;;;10579787;28;20023;-55
2021/12/01 22:52:56;;;;;;;1.50;0.65;;;16.90;69.70;;;;;;10560681;28;20024;-55
2021/12/01 22:57:58;;;;;;;2.63;0.82;;;16.90;69.80;;;;;;10561534;28;20461;-56
2021/12/01 23:03:16;;;;;;;2.63;0.93;;;16.90;69.90;;;;;;10561463;28;20035;-56
2021/12/01 23:08:20;;;;;;;2.42;0.82;;;16.80;69.80;;;;;;10561890;28;20456;-55
2021/12/01 23:13:23;;;;;;;1.88;0.60;;;16.80;69.80;;;;;;10579515;28;20401;-56
2021/12/01 23:18:25;;;;;;;2.17;1.00;;;16.80;69.80;;;;;;10550901;28;20031;-55
2021/12/01 23:28:38;;;;;;;2.47;0.82;;;16.80;70.00;;;;;;10557009;28;20023;-56
2021/12/01 23:33:53;;;;;;;2.97;0.80;;;16.70;69.80;;;;;;10587511;28;20485;-55
2021/12/01 23:38:54;;;;;;;2.83;0.70;;;16.70;69.80;;;;;;10569182;28;20508;-54
2021/12/01 23:43:55;;;;;;;3.15;0.80;;;16.70;70.00;;;;;;10586671;28;20096;-56
2021/12/01 23:54:16;;;;;;;2.45;0.88;;;16.70;70.00;;;;;;10571218;28;20040;-56
2021/12/01 23:59:17;;;;;;;3.65;1.13;;;16.60;70.00;;;;;;10568292;28;20160;-56
